sensor_id;sensor_type;location;lat;lon;timestamp;pressure;altitude;pressure_sealevel;temperature;humidity
57799;BME280;43626;53.866;30.298;2023-10-31T00:00:57;1018.4;;;7.9;70.3
57799;BME280;43626;53.866;30.298;2023-10-31T00:05:35;1018.5;;;7.8;70.1
57799;BME280;43626;53.866;30.298;2023-10-31T00:10:57;1018.6;;;7.8;70.2
57799;BME280;43626;53.866;30.298;2023-10-31T00:16:09;1018.6;;;7.8;70.6
57799;BME280;43626;53.866;30.298;2023-10-31T00:20:47;1018.6;;;7.8;70.6
57799;BME280;43626;53.866;30.298;2023-10-31T00:25:29;1018.6;;;7.7;70.6
57799;BME280;43626;53.866;30.298;2023-10-31T00:31:05;1018.6;;;7.7;70.7
57799;BME280;43626;53.866;30.298;2023-10-31T00:35:27;1018.6;;;7.7;70.8
57799;BME280;43626;53.866;30.298;2023-10-31T00:41:07;1018.6;;;7.6;70.7
57799;BME280;43626;53.866;30.298;2023-10-31T00:45:57;1018.7;;;7.6;70.2
57799;BME280;43626;53.866;30.298;2023-10-31T00:50:55;1018.7;;;7.5;70
57799;BME280;43626;53.866;30.298;2023-10-31T00:55:33;1018.7;;;7.4;70
57799;BME280;43626;53.866;30.298;2023-10-31T01:00:55;1018.6;;;7.4;70.2
57799;BME280;43626;53.866;30.298;2023-10-31T01:06:07;1018.6;;;7.4;70.4
57799;BME280;43626;53.866;30.298;2023-10-31T01:10:49;1018.6;;;7.4;70.3
57799;BME280;43626;53.866;30.298;2023-10-31T01:15:29;1018.6;;;7.4;70.8
57799;BME280;43626;53.866;30.298;2023-10-31T01:20:31;1018.6;;;7.4;70.9
57799;BME280;43626;53.866;30.298;2023-10-31T01:25:29;1018.6;;;7.4;71
57799;BME280;43626;53.866;30.298;2023-10-31T01:31:07;1018.6;;;7.4;71.1
57799;BME280;43626;53.866;30.298;2023-10-31T01:36:01;1018.6;;;7.4;71.1
57799;BME280;43626;53.866;30.298;2023-10-31T01:40:55;1018.6;;;7.3;70.9
57799;BME280;43626;53.866;30.298;2023-10-31T01:45:35;1018.5;;;7.3;71
57799;BME280;43626;53.866;30.298;2023-10-31T01:50:49;1018.6;;;7.2;71.4
57799;BME280;43626;53.866;30.298;2023-10-31T01:56:09;1018.6;;;7.1;71.4
57799;BME280;43626;53.866;30.298;2023-10-31T02:00:49;1018.6;;;7.1;71.7
57799;BME280;43626;53.866;30.298;2023-10-31T02:05:23;1018.7;;;7.1;71.9
57799;BME280;43626;53.866;30.298;2023-10-31T02:10:23;1018.7;;;7.1;71.6
57799;BME280;43626;53.866;30.298;2023-10-31T02:15:33;1018.6;;;7.1;71.7
57799;BME280;43626;53.866;30.298;2023-10-31T02:21:09;1018.6;;;7.1;71.5
57799;BME280;43626;53.866;30.298;2023-10-31T02:25:59;1018.6;;;7.1;71.5
57799;BME280;43626;53.866;30.298;2023-10-31T02:30:57;1018.7;;;7.1;71.5
57799;BME280;43626;53.866;30.298;2023-10-31T02:35:33;1018.8;;;7.1;71.6
57799;BME280;43626;53.866;30.298;2023-10-31T02:41:09;1018.8;;;7.1;71.5
57799;BME280;43626;53.866;30.298;2023-10-31T02:46:09;1018.9;;;7.1;71.4
57799;BME280;43626;53.866;30.298;2023-10-31T02:50:23;1018.9;;;7.1;71.6
57799;BME280;43626;53.866;30.298;2023-10-31T02:55:29;1018.9;;;7.1;71.8
57799;BME280;43626;53.866;30.298;2023-10-31T03:00:29;1018.9;;;7.2;71.6
57799;BME280;43626;53.866;30.298;2023-10-31T03:05:59;1018.8;;;7.2;71.7
57799;BME280;43626;53.866;30.298;2023-10-31T03:11:07;1018.8;;;7.3;71.7
57799;BME280;43626;53.866;30.298;2023-10-31T03:15:59;1018.8;;;7.3;71.6
57799;BME280;43626;53.866;30.298;2023-10-31T03:20:57;1018.8;;;7.3;71.6
57799;BME280;43626;53.866;30.298;2023-10-31T03:25:35;1018.9;;;7.3;71.5
57799;BME280;43626;53.866;30.298;2023-10-31T03:30:23;1019;;;7.3;71.6
57799;BME280;43626;53.866;30.298;2023-10-31T03:36:09;1019;;;7.3;72
57799;BME280;43626;53.866;30.298;2023-10-31T03:40:49;1019;;;7.3;72.1
57799;BME280;43626;53.866;30.298;2023-10-31T03:45:29;1018.9;;;7.3;72.2
57799;BME280;43626;53.866;30.298;2023-10-31T03:50:29;1019;;;7.3;72.3
57799;BME280;43626;53.866;30.298;2023-10-31T03:56:01;1019;;;7.3;72.4
57799;BME280;43626;53.866;30.298;2023-10-31T04:01:09;1018.9;;;7.4;72.9
57799;BME280;43626;53.866;30.298;2023-10-31T04:05:41;1018.9;;;7.4;73.2
57799;BME280;43626;53.866;30.298;2023-10-31T04:10:57;1018.9;;;7.4;73.1
57799;BME280;43626;53.866;30.298;2023-10-31T04:15:35;1019;;;7.4;73.1
57799;BME280;43626;53.866;30.298;2023-10-31T04:20:23;1019.1;;;7.5;73
57799;BME280;43626;53.866;30.298;2023-10-31T04:26:09;1019.1;;;7.5;73
57799;BME280;43626;53.866;30.298;2023-10-31T04:31:07;1019;;;7.5;73.1
57799;BME280;43626;53.866;30.298;2023-10-31T04:35:29;1018.9;;;7.4;73.4
57799;BME280;43626;53.866;30.298;2023-10-31T04:40:23;1018.9;;;7.4;73.8
57799;BME280;43626;53.866;30.298;2023-10-31T04:45:53;1018.9;;;7.4;73.6
57799;BME280;43626;53.866;30.298;2023-10-31T04:50:57;1018.9;;;7.4;73.6
57799;BME280;43626;53.866;30.298;2023-10-31T04:55:59;1019;;;7.5;73.7
57799;BME280;43626;53.866;30.298;2023-10-31T05:00:55;1019;;;7.5;73.5
57799;BME280;43626;53.866;30.298;2023-10-31T05:05:23;1019;;;7.5;73.4
57799;BME280;43626;53.866;30.298;2023-10-31T05:10:29;1019.1;;;7.5;73.5
57799;BME280;43626;53.866;30.298;2023-10-31T05:16:05;1019.1;;;7.6;73.5
57799;BME280;43626;53.866;30.298;2023-10-31T05:20:49;1019;;;7.6;73.6
57799;BME280;43626;53.866;30.298;2023-10-31T05:25:29;1019;;;7.6;73.7
57799;BME280;43626;53.866;30.298;2023-10-31T05:30:29;1019;;;7.7;73.8
57799;BME280;43626;53.866;30.298;2023-10-31T05:36:01;1019.1;;;7.7;74.2
57799;BME280;43626;53.866;30.298;2023-10-31T05:41:07;1019;;;7.8;74.4
57799;BME280;43626;53.866;30.298;2023-10-31T05:45:41;1018.9;;;7.8;74.5
57799;BME280;43626;53.866;30.298;2023-10-31T05:51:10;1018.9;;;7.9;74.5
57799;BME280;43626;53.866;30.298;2023-10-31T05:55:27;1019;;;8;74.4
57799;BME280;43626;53.866;30.298;2023-10-31T06:00:49;1018.9;;;8;74.3
57799;BME280;43626;53.866;30.298;2023-10-31T06:06:07;1018.8;;;8.1;74.1
57799;BME280;43626;53.866;30.298;2023-10-31T06:10:58;1018.8;;;8.2;74.1
57799;BME280;43626;53.866;30.298;2023-10-31T06:16:07;1018.8;;;8.2;74
57799;BME280;43626;53.866;30.298;2023-10-31T06:20:23;1018.9;;;8.3;74
57799;BME280;43626;53.866;30.298;2023-10-31T06:25:59;1018.7;;;8.3;74
57799;BME280;43626;53.866;30.298;2023-10-31T06:30:45;1018.6;;;8.4;73.7
57799;BME280;43626;53.866;30.298;2023-10-31T06:36:07;1018.5;;;8.4;73.7
57799;BME280;43626;53.866;30.298;2023-10-31T06:40:55;1018.5;;;8.5;73.9
57799;BME280;43626;53.866;30.298;2023-10-31T06:46:07;1018.6;;;8.5;74.1
57799;BME280;43626;53.866;30.298;2023-10-31T06:50:49;1018.6;;;8.6;74.2
57799;BME280;43626;53.866;30.298;2023-10-31T06:55:55;1018.6;;;8.7;74.2
57799;BME280;43626;53.866;30.298;2023-10-31T07:00:45;1018.6;;;8.8;74.3
57799;BME280;43626;53.866;30.298;2023-10-31T07:05:23;1018.5;;;8.9;74.5
57799;BME280;43626;53.866;30.298;2023-10-31T07:10:29;1018.5;;;9;74.5
57799;BME280;43626;53.866;30.298;2023-10-31T07:15:23;1018.6;;;9.1;74.4
57799;BME280;43626;53.866;30.298;2023-10-31T07:21:07;1018.5;;;9.2;74.5
57799;BME280;43626;53.866;30.298;2023-10-31T07:26:07;1018.5;;;9.3;74.7
57799;BME280;43626;53.866;30.298;2023-10-31T07:30:25;1018.5;;;9.4;74.7
57799;BME280;43626;53.866;30.298;2023-10-31T07:36:07;1018.5;;;9.5;74.6
57799;BME280;43626;53.866;30.298;2023-10-31T07:40:49;1018.4;;;9.6;74.8
57799;BME280;43626;53.866;30.298;2023-10-31T07:45:55;1018.3;;;9.7;75
57799;BME280;43626;53.866;30.298;2023-10-31T07:50:29;1018.3;;;9.8;75.2
57799;BME280;43626;53.866;30.298;2023-10-31T07:55:23;1018.2;;;9.9;75.6
57799;BME280;43626;53.866;30.298;2023-10-31T08:00:23;1018;;;10;76.1
57799;BME280;43626;53.866;30.298;2023-10-31T08:05:23;1017.8;;;10.1;76.7
57799;BME280;43626;53.866;30.298;2023-10-31T08:11:07;1017.8;;;10.3;77.3
57799;BME280;43626;53.866;30.298;2023-10-31T08:16:07;1017.8;;;10.5;77.7
57799;BME280;43626;53.866;30.298;2023-10-31T08:20:55;1017.7;;;10.7;79.1
57799;BME280;43626;53.866;30.298;2023-10-31T08:26:07;1017.8;;;10.9;79.6
57799;BME280;43626;53.866;30.298;2023-10-31T08:30:49;1017.8;;;11.1;80.5
57799;BME280;43626;53.866;30.298;2023-10-31T08:35:55;1017.6;;;11.3;80.5
57799;BME280;43626;53.866;30.298;2023-10-31T08:40:23;1017.6;;;11.5;80.7
57799;BME280;43626;53.866;30.298;2023-10-31T08:45:29;1017.5;;;11.7;80.4
57799;BME280;43626;53.866;30.298;2023-10-31T08:50:29;1017.4;;;11.9;79.9
57799;BME280;43626;53.866;30.298;2023-10-31T08:55:23;1017.3;;;12.1;79.6
57799;BME280;43626;53.866;30.298;2023-10-31T09:01:07;1017.2;;;12.3;79.3
57799;BME280;43626;53.866;30.298;2023-10-31T09:06:07;1017.2;;;12.5;79.2
57799;BME280;43626;53.866;30.298;2023-10-31T09:10:55;1017.1;;;12.6;78.9
57799;BME280;43626;53.866;30.298;2023-10-31T09:16:07;1017;;;12.8;78.4
57799;BME280;43626;53.866;30.298;2023-10-31T09:20:23;1017.1;;;12.9;77.9
57799;BME280;43626;53.866;30.298;2023-10-31T09:25:55;1017;;;13.1;76.8
57799;BME280;43626;53.866;30.298;2023-10-31T09:30:23;1016.9;;;13.2;76.2
57799;BME280;43626;53.866;30.298;2023-10-31T09:35:29;1016.7;;;13.2;75.5
57799;BME280;43626;53.866;30.298;2023-10-31T09:40:29;1016.7;;;13.2;75.3
57799;BME280;43626;53.866;30.298;2023-10-31T09:45:37;1016.5;;;13.2;75.2
57799;BME280;43626;53.866;30.298;2023-10-31T09:51:05;1016.6;;;13.2;74.9
57799;BME280;43626;53.866;30.298;2023-10-31T09:56:07;1016.6;;;13.2;74.9
57799;BME280;43626;53.866;30.298;2023-10-31T10:00:55;1016.5;;;13.2;74.8
57799;BME280;43626;53.866;30.298;2023-10-31T10:06:07;1016.5;;;13.3;74.7
57799;BME280;43626;53.866;30.298;2023-10-31T10:10:49;1016.4;;;13.3;74.4
57799;BME280;43626;53.866;30.298;2023-10-31T10:15:55;1016.4;;;13.2;73.8
57799;BME280;43626;53.866;30.298;2023-10-31T10:20:31;1016.3;;;13.2;73.8
57799;BME280;43626;53.866;30.298;2023-10-31T10:25:56;1016.3;;;13.3;73.7
57799;BME280;43626;53.866;30.298;2023-10-31T10:30:23;1016.2;;;13.4;74.4
57799;BME280;43626;53.866;30.298;2023-10-31T10:35:33;1016.1;;;13.6;72.8
57799;BME280;43626;53.866;30.298;2023-10-31T10:41:07;1016.1;;;13.7;72.6
57799;BME280;43626;53.866;30.298;2023-10-31T10:46:07;1015.9;;;13.7;72.4
57799;BME280;43626;53.866;30.298;2023-10-31T10:50:57;1015.9;;;13.8;72.1
57799;BME280;43626;53.866;30.298;2023-10-31T10:56:09;1015.8;;;13.9;71.8
57799;BME280;43626;53.866;30.298;2023-10-31T11:00:49;1015.7;;;13.9;71.5
57799;BME280;43626;53.866;30.298;2023-10-31T11:06:07;1015.7;;;13.9;71.2
57799;BME280;43626;53.866;30.298;2023-10-31T11:10:23;1015.7;;;14;70.8
57799;BME280;43626;53.866;30.298;2023-10-31T11:15:23;1015.6;;;14.1;70.4
57799;BME280;43626;53.866;30.298;2023-10-31T11:20:45;1015.5;;;14.2;69.8
57799;BME280;43626;53.866;30.298;2023-10-31T11:25:50;1015.4;;;14.3;69.5
57799;BME280;43626;53.866;30.298;2023-10-31T11:30:46;1015.2;;;14.5;69.1
57799;BME280;43626;53.866;30.298;2023-10-31T11:35:49;1015.1;;;14.6;68.4
57799;BME280;43626;53.866;30.298;2023-10-31T11:41:05;1014.9;;;14.7;68.1
57799;BME280;43626;53.866;30.298;2023-10-31T11:46:14;1014.7;;;14.7;67.7
57799;BME280;43626;53.866;30.298;2023-10-31T11:50:23;1014.7;;;14.8;67.6
57799;BME280;43626;53.866;30.298;2023-10-31T11:56:07;1014.8;;;14.8;67.6
57799;BME280;43626;53.866;30.298;2023-10-31T12:00:23;1014.9;;;14.7;67.1
57799;BME280;43626;53.866;30.298;2023-10-31T12:05:51;1015;;;14.6;66.4
57799;BME280;43626;53.866;30.298;2023-10-31T12:10:45;1015;;;14.5;66.3
57799;BME280;43626;53.866;30.298;2023-10-31T12:15:50;1014.8;;;14.4;66.3
57799;BME280;43626;53.866;30.298;2023-10-31T12:20:47;1014.8;;;14.4;66.4
57799;BME280;43626;53.866;30.298;2023-10-31T12:26:05;1014.7;;;14.4;65.9
57799;BME280;43626;53.866;30.298;2023-10-31T12:31:07;1014.7;;;14.4;65.8
57799;BME280;43626;53.866;30.298;2023-10-31T12:35:56;1014.6;;;14.3;66
57799;BME280;43626;53.866;30.298;2023-10-31T12:40:43;1014.5;;;14.3;65.9
57799;BME280;43626;53.866;30.298;2023-10-31T12:46:39;1014.5;;;14.3;65.9
57799;BME280;43626;53.866;30.298;2023-10-31T12:50:29;1014.4;;;14.3;66
57799;BME280;43626;53.866;30.298;2023-10-31T12:55:50;1014.2;;;14.2;66.1
57799;BME280;43626;53.866;30.298;2023-10-31T13:00:45;1014.2;;;14.2;66
57799;BME280;43626;53.866;30.298;2023-10-31T13:06:12;1014.1;;;14.2;65.5
57799;BME280;43626;53.866;30.298;2023-10-31T13:10:35;1014;;;14.1;65.1
57799;BME280;43626;53.866;30.298;2023-10-31T13:15:47;1013.9;;;14.1;64.7
57799;BME280;43626;53.866;30.298;2023-10-31T13:21:09;1013.9;;;14;64.5
57799;BME280;43626;53.866;30.298;2023-10-31T13:26:09;1014;;;13.9;64.8
57799;BME280;43626;53.866;30.298;2023-10-31T13:30:23;1013.9;;;13.9;65.1
57799;BME280;43626;53.866;30.298;2023-10-31T13:36:09;1013.8;;;13.9;65.2
57799;BME280;43626;53.866;30.298;2023-10-31T13:40:29;1013.8;;;13.8;65.2
57799;BME280;43626;53.866;30.298;2023-10-31T13:45:29;1013.6;;;13.8;65.1
57799;BME280;43626;53.866;30.298;2023-10-31T13:50:47;1013.4;;;13.7;65.2
57799;BME280;43626;53.866;30.298;2023-10-31T13:56:01;1013.3;;;13.7;65.1
57799;BME280;43626;53.866;30.298;2023-10-31T14:00:47;1013.2;;;13.6;65.1
57799;BME280;43626;53.866;30.298;2023-10-31T14:05:45;1013.2;;;13.6;64.9
57799;BME280;43626;53.866;30.298;2023-10-31T14:11:09;1013.2;;;13.5;65
57799;BME280;43626;53.866;30.298;2023-10-31T14:16:10;1013.1;;;13.4;65.1
57799;BME280;43626;53.866;30.298;2023-10-31T14:20:43;1013;;;13.4;64.9
57799;BME280;43626;53.866;30.298;2023-10-31T14:26:09;1013;;;13.4;64.9
57799;BME280;43626;53.866;30.298;2023-10-31T14:30:23;1013;;;13.4;65
57799;BME280;43626;53.866;30.298;2023-10-31T14:35:23;1013;;;13.4;65.1
57799;BME280;43626;53.866;30.298;2023-10-31T14:40:45;1012.9;;;13.3;65.1
57799;BME280;43626;53.866;30.298;2023-10-31T14:45:37;1012.9;;;13.3;65.1
57799;BME280;43626;53.866;30.298;2023-10-31T14:50:47;1012.8;;;13.3;65.2
57799;BME280;43626;53.866;30.298;2023-10-31T14:55:47;1012.8;;;13.3;65.1
57799;BME280;43626;53.866;30.298;2023-10-31T15:01:07;1012.8;;;13.3;64.9
57799;BME280;43626;53.866;30.298;2023-10-31T15:06:09;1012.7;;;13.3;64.9
57799;BME280;43626;53.866;30.298;2023-10-31T15:10:24;1012.6;;;13.2;64.9
57799;BME280;43626;53.866;30.298;2023-10-31T15:16:09;1012.5;;;13.2;65
57799;BME280;43626;53.866;30.298;2023-10-31T15:20:23;1012.5;;;13.3;65
57799;BME280;43626;53.866;30.298;2023-10-31T15:25:23;1012.5;;;13.3;64.9
57799;BME280;43626;53.866;30.298;2023-10-31T15:30:47;1012.3;;;13.3;65
57799;BME280;43626;53.866;30.298;2023-10-31T15:35:23;1012.2;;;13.3;65
57799;BME280;43626;53.866;30.298;2023-10-31T15:40:35;1012.1;;;13.3;65.1
57799;BME280;43626;53.866;30.298;2023-10-31T15:45:45;1012.2;;;13.3;65.1
57799;BME280;43626;53.866;30.298;2023-10-31T15:50:35;1012.2;;;13.3;65.2
57799;BME280;43626;53.866;30.298;2023-10-31T15:55:55;1012.1;;;13.3;65.1
57799;BME280;43626;53.866;30.298;2023-10-31T16:00:59;1012.1;;;13.3;65.1
57799;BME280;43626;53.866;30.298;2023-10-31T16:05:29;1012.1;;;13.3;65.1
57799;BME280;43626;53.866;30.298;2023-10-31T16:10:23;1012.1;;;13.3;65.2
57799;BME280;43626;53.866;30.298;2023-10-31T16:15:23;1012.2;;;13.3;65.4
57799;BME280;43626;53.866;30.298;2023-10-31T16:21:15;1012.2;;;13.4;65.4
57799;BME280;43626;53.866;30.298;2023-10-31T16:25:23;1012.3;;;13.4;65.4
57799;BME280;43626;53.866;30.298;2023-10-31T16:30:33;1012.3;;;13.4;65.3
57799;BME280;43626;53.866;30.298;2023-10-31T16:35:47;1012.4;;;13.4;65.4
57799;BME280;43626;53.866;30.298;2023-10-31T16:40:29;1012.4;;;13.4;65.4
57799;BME280;43626;53.866;30.298;2023-10-31T16:46:07;1012.4;;;13.3;65.5
57799;BME280;43626;53.866;30.298;2023-10-31T16:50:59;1012.4;;;13.3;65.5
57799;BME280;43626;53.866;30.298;2023-10-31T16:55:24;1012.4;;;13.3;65.7
57799;BME280;43626;53.866;30.298;2023-10-31T17:00:29;1012.5;;;13.3;65.2
57799;BME280;43626;53.866;30.298;2023-10-31T17:05:23;1012.5;;;13.3;65.2
57799;BME280;43626;53.866;30.298;2023-10-31T17:11:08;1012.4;;;13.3;65.3
57799;BME280;43626;53.866;30.298;2023-10-31T17:15:39;1012.3;;;13.3;65.4
57799;BME280;43626;53.866;30.298;2023-10-31T17:20:23;1012.2;;;13.3;65.5
57799;BME280;43626;53.866;30.298;2023-10-31T17:25:45;1012.2;;;13.3;65.6
57799;BME280;43626;53.866;30.298;2023-10-31T17:30:23;1012.1;;;13.2;65.6
57799;BME280;43626;53.866;30.298;2023-10-31T17:36:08;1012.1;;;13.2;65.7
57799;BME280;43626;53.866;30.298;2023-10-31T17:40:53;1012.1;;;13.2;65.7
57799;BME280;43626;53.866;30.298;2023-10-31T17:45:29;1012;;;13.1;65.8
57799;BME280;43626;53.866;30.298;2023-10-31T17:50:24;1012.1;;;13.1;65.9
57799;BME280;43626;53.866;30.298;2023-10-31T17:55:24;1012.1;;;13.1;66
57799;BME280;43626;53.866;30.298;2023-10-31T18:01:08;1012.1;;;13.1;65.9
57799;BME280;43626;53.866;30.298;2023-10-31T18:05:37;1012.1;;;13;65.8
57799;BME280;43626;53.866;30.298;2023-10-31T18:10:36;1012.2;;;13;66
57799;BME280;43626;53.866;30.298;2023-10-31T18:15:48;1012.1;;;13;66
57799;BME280;43626;53.866;30.298;2023-10-31T18:20:35;1012;;;13;66
57799;BME280;43626;53.866;30.298;2023-10-31T18:26:09;1012.1;;;13;66.1
57799;BME280;43626;53.866;30.298;2023-10-31T18:30:57;1012.1;;;12.9;66.2
57799;BME280;43626;53.866;30.298;2023-10-31T18:35:23;1012.1;;;12.9;66.2
57799;BME280;43626;53.866;30.298;2023-10-31T18:40:23;1012.1;;;12.9;66.2
57799;BME280;43626;53.866;30.298;2023-10-31T18:45:23;1012.1;;;12.8;66.4
57799;BME280;43626;53.866;30.298;2023-10-31T18:51:08;1012.1;;;12.8;66.5
57799;BME280;43626;53.866;30.298;2023-10-31T18:55:29;1012;;;12.8;66.8
57799;BME280;43626;53.866;30.298;2023-10-31T19:00:35;1012;;;12.8;66.9
57799;BME280;43626;53.866;30.298;2023-10-31T19:05:48;1011.9;;;12.7;67.2
57799;BME280;43626;53.866;30.298;2023-10-31T19:10:30;1011.9;;;12.7;67.3
57799;BME280;43626;53.866;30.298;2023-10-31T19:16:08;1011.8;;;12.8;67.3
57799;BME280;43626;53.866;30.298;2023-10-31T19:20:57;1011.8;;;12.7;67.4
57799;BME280;43626;53.866;30.298;2023-10-31T19:25:24;1011.7;;;12.7;67.5
57799;BME280;43626;53.866;30.298;2023-10-31T19:30:23;1011.7;;;12.7;67.6
57799;BME280;43626;53.866;30.298;2023-10-31T19:35:24;1011.7;;;12.7;67.7
57799;BME280;43626;53.866;30.298;2023-10-31T19:41:07;1011.6;;;12.7;67.9
57799;BME280;43626;53.866;30.298;2023-10-31T19:45:30;1011.6;;;12.7;68.2
57799;BME280;43626;53.866;30.298;2023-10-31T19:50:30;1011.6;;;12.7;68.2
57799;BME280;43626;53.866;30.298;2023-10-31T19:55:48;1011.6;;;12.7;68.3
57799;BME280;43626;53.866;30.298;2023-10-31T20:00:36;1011.5;;;12.7;68.5
57799;BME280;43626;53.866;30.298;2023-10-31T20:06:10;1011.4;;;12.7;68.5
57799;BME280;43626;53.866;30.298;2023-10-31T20:11:02;1011.4;;;12.7;68.5
57799;BME280;43626;53.866;30.298;2023-10-31T20:15:24;1011.3;;;12.7;68.5
57799;BME280;43626;53.866;30.298;2023-10-31T20:20:24;1011.3;;;12.7;68.5
57799;BME280;43626;53.866;30.298;2023-10-31T20:25:24;1011.3;;;12.7;68.5
57799;BME280;43626;53.866;30.298;2023-10-31T20:31:08;1011.2;;;12.7;68.5
57799;BME280;43626;53.866;30.298;2023-10-31T20:35:24;1011.2;;;12.7;68.6
57799;BME280;43626;53.866;30.298;2023-10-31T20:40:58;1011.1;;;12.7;68.6
57799;BME280;43626;53.866;30.298;2023-10-31T20:45:48;1011.2;;;12.8;68.6
57799;BME280;43626;53.866;30.298;2023-10-31T20:51:02;1011.1;;;12.8;68.4
57799;BME280;43626;53.866;30.298;2023-10-31T20:56:08;1011.1;;;12.8;68.3
57799;BME280;43626;53.866;30.298;2023-10-31T21:00:52;1011;;;12.9;68.1
57799;BME280;43626;53.866;30.298;2023-10-31T21:05:58;1011.1;;;12.9;68
57799;BME280;43626;53.866;30.298;2023-10-31T21:10:36;1011.1;;;13;67.9
57799;BME280;43626;53.866;30.298;2023-10-31T21:16:02;1011.2;;;13;67.9
57799;BME280;43626;53.866;30.298;2023-10-31T21:21:10;1011.2;;;13;67.8
57799;BME280;43626;53.866;30.298;2023-10-31T21:25:24;1011.1;;;13;67.8
57799;BME280;43626;53.866;30.298;2023-10-31T21:30:30;1011.1;;;13.1;67.6
57799;BME280;43626;53.866;30.298;2023-10-31T21:35:48;1011.1;;;13;67.5
57799;BME280;43626;53.866;30.298;2023-10-31T21:40:26;1011.1;;;13;67.5
57799;BME280;43626;53.866;30.298;2023-10-31T21:46:10;1011;;;13.1;67.5
57799;BME280;43626;53.866;30.298;2023-10-31T21:50:52;1011;;;13.1;67.5
57799;BME280;43626;53.866;30.298;2023-10-31T21:55:50;1011;;;13.1;67.5
57799;BME280;43626;53.866;30.298;2023-10-31T22:00:30;1010.9;;;13.1;67.5
57799;BME280;43626;53.866;30.298;2023-10-31T22:05:38;1010.8;;;13.2;67.4
57799;BME280;43626;53.866;30.298;2023-10-31T22:11:08;1010.7;;;13.2;67.4
57799;BME280;43626;53.866;30.298;2023-10-31T22:15:32;1010.6;;;13.1;67.4
57799;BME280;43626;53.866;30.298;2023-10-31T22:20:34;1010.6;;;13.1;67.4
57799;BME280;43626;53.866;30.298;2023-10-31T22:25:44;1010.6;;;13.1;67.5
57799;BME280;43626;53.866;30.298;2023-10-31T22:31:02;1010.6;;;13.1;67.5
57799;BME280;43626;53.866;30.298;2023-10-31T22:36:10;1010.6;;;13;67.6
57799;BME280;43626;53.866;30.298;2023-10-31T22:41:02;1010.6;;;13.1;67.6
57799;BME280;43626;53.866;30.298;2023-10-31T22:45:24;1010.6;;;13.1;67.5
57799;BME280;43626;53.866;30.298;2023-10-31T22:50:30;1010.6;;;13.1;67.6
57799;BME280;43626;53.866;30.298;2023-10-31T22:55:38;1010.7;;;13.1;67.8
57799;BME280;43626;53.866;30.298;2023-10-31T23:01:10;1010.7;;;13.1;67.8
57799;BME280;43626;53.866;30.298;2023-10-31T23:05:40;1010.5;;;13.1;67.9
57799;BME280;43626;53.866;30.298;2023-10-31T23:10:36;1010.5;;;13.1;68
57799;BME280;43626;53.866;30.298;2023-10-31T23:15:48;1010.4;;;13.1;68.1
57799;BME280;43626;53.866;30.298;2023-10-31T23:20:26;1010.3;;;13.1;68.1
57799;BME280;43626;53.866;30.298;2023-10-31T23:26:08;1010.3;;;13.2;67.9
57799;BME280;43626;53.866;30.298;2023-10-31T23:30:32;1010.4;;;13.1;67.7
57799;BME280;43626;53.866;30.298;2023-10-31T23:35:50;1010.2;;;13.1;67.6
57799;BME280;43626;53.866;30.298;2023-10-31T23:40:24;1010.1;;;13.1;67.5
57799;BME280;43626;53.866;30.298;2023-10-31T23:45:24;1010.1;;;13.1;67.8
57799;BME280;43626;53.866;30.298;2023-10-31T23:51:10;1010;;;13;68
57799;BME280;43626;53.866;30.298;2023-10-31T23:56:00;1009.9;;;13;68
